Broadview, Montana
Current Conditions -  °F | °C
As of 10:53 PM on Friday 24 Oct 2014 (Local Time) from KBIL Reporting Station
Clear Clear  
Wind Chill: 47°   Ceiling: Unl
Heat Index: 49°   Visibility: 10mi
Dew Point: 35°   Wind: 5mph
Humidity: 59%   Direction: 30°NNE
Pressure: 30.1"   Gusts: NA
Location:  46.1°N, 108.88°W
Report Text: KBIL 250453Z 03004KT 10SM CLR 09/02 A3010 RMK AO2 SLP187 T00940017
Loading
Personal Weather Stations






























Interactive Weather Map
Tropical Storm Tracking
New forecast layout! Learn more

10-Day Weather Forecast

Advertisements
Track Severe Weather on mobile